Time;durP1;ratioP1;P1;durP2;ratioP2;P2;SDS_P1;SDS_P2;PMS_P1;PMS_P2;Temp;Humidity;BMP_temperature;BMP_pressure;BME280_temperature;BME280_humidity;BME280_pressure;Samples;Min_cycle;Max_cycle;Signal;HPM_P1;HPM_P2
2022/05/03 00:01:33;;;;;;;;;;;;;;;13.02;52.72;101224.22;5050698;28;19931;-78
2022/05/03 00:04:34;;;;;;;;;;;;;;;13.11;51.91;101225.75;5058738;28;19986;-74
2022/05/03 00:07:01;;;;;;;;;;;;;;;13.13;51.75;101226.59;5034748;28;19933;-79
2022/05/03 00:09:36;;;;;;;;;;;;;;;13.06;51.66;101225.00;5053370;28;20013;-79
2022/05/03 00:12:05;;;;;;;;;;;;;;;12.94;51.80;101217.47;5060684;28;20290;-79
2022/05/03 00:14:49;;;;;;;;;;;;;;;13.08;51.54;101221.47;5058868;28;19931;-79
2022/05/03 00:17:15;;;;;;;;;;;;;;;12.97;51.35;101217.41;5062174;28;20393;-79
2022/05/03 00:19:42;;;;;;;;;;;;;;;13.09;50.85;101225.81;5059909;28;19920;-79
2022/05/03 00:22:08;;;;;;;;;;;;;;;13.08;50.37;101228.44;5063476;28;20007;-79
2022/05/03 00:24:34;;;;;;;;;;;;;;;13.16;50.77;101231.75;5059207;28;20015;-79
2022/05/03 00:26:59;;;;;;;;;;;;;;;13.21;49.90;101222.91;5057763;28;19920;-79
2022/05/03 00:29:26;;;;;;;;;;;;;;;13.09;50.21;101220.59;5064714;28;19925;-79
2022/05/03 00:31:51;;;;;;;;;;;;;;;13.02;52.23;101220.75;5062370;28;19923;-80
2022/05/03 00:34:16;;;;;;;;;;;;;;;13.09;51.95;101217.97;5058648;28;19917;-81
2022/05/03 00:36:42;;;;;;;;;;;;;;;13.12;52.06;101223.13;5064360;28;19960;-82
2022/05/03 00:39:07;;;;;;;;;;;;;;;13.04;52.29;101217.25;5052410;28;19925;-82
2022/05/03 00:41:44;;;;;;;;;;;;;;;13.05;52.40;101218.94;5035217;28;19925;-82
2022/05/03 00:47:04;;;;;;;;;;;;;;;13.00;52.45;101217.34;5043671;28;19927;-78
2022/05/03 00:49:36;;;;;;;;;;;;;;;13.10;51.88;101213.63;5042446;28;19982;-78
2022/05/03 00:52:09;;;;;;;;;;;;;;;13.08;51.10;101213.66;5035812;28;20031;-78
2022/05/03 00:54:40;;;;;;;;;;;;;;;12.98;51.91;101206.97;5042575;28;19921;-78
2022/05/03 00:57:22;;;;;;;;;;;;;;;12.97;52.10;101202.63;5041504;28;20015;-78
2022/05/03 00:59:54;;;;;;;;;;;;;;;13.06;51.56;101205.00;5041359;28;19944;-78
2022/05/03 01:02:25;;;;;;;;;;;;;;;13.03;50.90;101206.84;5042638;28;20398;-78
2022/05/03 01:05:02;;;;;;;;;;;;;;;12.90;51.64;101202.81;5044263;28;19924;-78
2022/05/03 01:07:33;;;;;;;;;;;;;;;12.99;51.17;101202.56;5063815;28;19928;-78
2022/05/03 01:10:02;;;;;;;;;;;;;;;12.94;51.29;101201.84;5059987;28;19946;-78
2022/05/03 01:12:46;;;;;;;;;;;;;;;12.78;52.40;101195.28;5062614;28;19988;-81
2022/05/03 01:15:32;;;;;;;;;;;;;;;12.78;52.30;101209.16;5064338;28;19928;-81
2022/05/03 01:18:00;;;;;;;;;;;;;;;12.90;51.17;101195.00;5063608;28;19964;-82
2022/05/03 01:20:50;;;;;;;;;;;;;;;12.97;51.13;101201.75;5067606;28;19921;-81
2022/05/03 01:23:15;;;;;;;;;;;;;;;12.95;51.36;101199.22;5066196;28;19951;-82
2022/05/03 01:25:44;;;;;;;;;;;;;;;12.89;51.58;101193.28;5063724;28;20426;-81
2022/05/03 01:28:21;;;;;;;;;;;;;;;12.98;51.27;101188.72;5064573;28;19928;-82
2022/05/03 01:30:49;;;;;;;;;;;;;;;13.04;51.10;101192.91;5063261;28;19982;-82
2022/05/03 01:33:30;;;;;;;;;;;;;;;13.04;50.85;101188.56;5062106;28;19928;-79
2022/05/03 01:35:57;;;;;;;;;;;;;;;12.97;51.79;101193.94;5074872;28;19928;-79
2022/05/03 01:38:29;;;;;;;;;;;;;;;12.89;52.65;101193.28;5066275;28;20058;-79
2022/05/03 01:41:19;;;;;;;;;;;;;;;12.87;52.55;101193.28;5062679;28;20082;-79
2022/05/03 01:44:02;;;;;;;;;;;;;;;12.85;52.34;101192.47;5053854;28;19924;-79
2022/05/03 01:46:30;;;;;;;;;;;;;;;12.84;54.07;101193.38;5064341;28;19936;-79
2022/05/03 01:51:50;;;;;;;;;;;;;;;12.85;55.08;101194.22;5063987;28;19927;-79
2022/05/03 01:54:18;;;;;;;;;;;;;;;12.64;55.47;101196.44;5059329;28;19925;-79
2022/05/03 01:56:55;;;;;;;;;;;;;;;12.61;55.64;101204.34;5064912;28;20365;-79
2022/05/03 01:59:39;;;;;;;;;;;;;;;12.61;55.33;101204.34;5060968;28;20289;-79
2022/05/03 02:02:12;;;;;;;;;;;;;;;12.74;54.16;101191.88;5061467;28;19965;-79
2022/05/03 02:04:40;;;;;;;;;;;;;;;12.85;53.69;101189.00;5064123;28;19923;-79
2022/05/03 02:07:24;;;;;;;;;;;;;;;12.75;53.24;101192.75;5061800;28;20039;-79
2022/05/03 02:09:49;;;;;;;;;;;;;;;12.87;52.83;101195.06;5060944;28;19979;-79
2022/05/03 02:12:15;;;;;;;;;;;;;;;12.80;53.36;101191.75;5063449;28;20465;-78
2022/05/03 02:14:49;;;;;;;;;;;;;;;12.74;54.00;101197.09;5060875;28;20385;-79
2022/05/03 02:17:17;;;;;;;;;;;;;;;12.77;53.73;101199.63;5061949;28;19931;-79
2022/05/03 02:20:01;;;;;;;;;;;;;;;12.75;53.10;101198.78;5062829;28;20300;-79
2022/05/03 02:22:41;;;;;;;;;;;;;;;12.72;52.96;101192.81;5064956;28;19928;-75
2022/05/03 02:25:27;;;;;;;;;;;;;;;12.69;52.55;101198.09;5063988;28;19924;-75
2022/05/03 02:28:10;;;;;;;;;;;;;;;12.40;53.92;101201.28;5060628;28;19924;-74
2022/05/03 02:30:38;;;;;;;;;;;;;;;12.61;53.26;101206.94;5064669;28;19924;-74
2022/05/03 02:33:05;;;;;;;;;;;;;;;12.60;53.75;101209.59;5060020;28;19924;-74
2022/05/03 02:35:34;;;;;;;;;;;;;;;12.59;53.28;101207.88;5061229;28;19928;-74
2022/05/03 02:38:07;;;;;;;;;;;;;;;12.54;53.78;101200.13;5058875;28;19964;-75
2022/05/03 02:40:33;;;;;;;;;;;;;;;12.45;53.91;101197.69;5064604;28;19921;-74
2022/05/03 02:42:59;;;;;;;;;;;;;;;12.39;53.66;101202.22;5063093;28;19931;-75
2022/05/03 02:45:25;;;;;;;;;;;;;;;12.34;54.19;101199.69;5063580;28;19924;-74
2022/05/03 02:48:08;;;;;;;;;;;;;;;12.41;54.07;101190.84;5064167;28;19935;-75
2022/05/03 02:50:44;;;;;;;;;;;;;;;12.45;53.74;101194.25;5065327;28;20065;-74
2022/05/03 02:53:22;;;;;;;;;;;;;;;12.57;54.17;101192.25;5062645;28;19928;-75
2022/05/03 02:55:51;;;;;;;;;;;;;;;12.46;54.13;101196.81;5064872;28;21291;-75
2022/05/03 02:58:35;;;;;;;;;;;;;;;12.43;53.70;101188.19;5080214;28;19952;-75
2022/05/03 03:04:05;;;;;;;;;;;;;;;12.53;54.36;101189.75;5064449;28;19931;-74
2022/05/03 03:06:32;;;;;;;;;;;;;;;12.61;54.14;101182.63;5064980;28;20483;-74
2022/05/03 03:08:59;;;;;;;;;;;;;;;12.45;54.65;101192.50;5065457;28;19936;-74
2022/05/03 03:11:44;;;;;;;;;;;;;;;12.52;54.62;101193.22;5064730;28;20607;-74
2022/05/03 03:14:32;;;;;;;;;;;;;;;12.56;53.52;101185.34;5059429;28;19963;-74
2022/05/03 03:17:05;;;;;;;;;;;;;;;12.41;54.12;101190.84;5065852;28;19932;-75
2022/05/03 03:19:49;;;;;;;;;;;;;;;12.31;54.47;101193.69;5065909;28;20381;-75
2022/05/03 03:22:15;;;;;;;;;;;;;;;12.50;54.08;101192.41;5064835;28;19928;-82
2022/05/03 03:24:41;;;;;;;;;;;;;;;12.48;54.14;101192.41;5064406;28;19931;-74
2022/05/03 03:27:08;;;;;;;;;;;;;;;12.45;53.88;101189.06;5059177;28;20011;-74
2022/05/03 03:29:33;;;;;;;;;;;;;;;12.33;54.43;101195.38;5061497;28;19931;-74
2022/05/03 03:32:00;;;;;;;;;;;;;;;12.43;53.75;101196.03;5061064;28;20301;-74
2022/05/03 03:34:27;;;;;;;;;;;;;;;12.16;55.00;101194.00;5059790;28;19920;-74
2022/05/03 03:36:53;;;;;;;;;;;;;;;12.36;54.71;101195.31;5062532;28;19929;-74
2022/05/03 03:39:19;;;;;;;;;;;;;;;12.39;54.65;101191.78;5056688;28;19956;-74
2022/05/03 03:41:47;;;;;;;;;;;;;;;12.49;54.05;101195.88;5064021;28;19963;-78
2022/05/03 03:44:13;;;;;;;;;;;;;;;12.44;54.33;101198.59;5061097;28;19921;-78
2022/05/03 03:46:38;;;;;;;;;;;;;;;12.34;54.36;101194.47;5062112;28;19931;-75
2022/05/03 03:49:04;;;;;;;;;;;;;;;12.20;54.92;101193.06;5062287;28;20498;-74
2022/05/03 03:51:29;;;;;;;;;;;;;;;12.07;54.61;101201.13;5062884;28;20040;-74
2022/05/03 03:53:55;;;;;;;;;;;;;;;11.98;54.57;101192.63;5062124;28;19929;-74
2022/05/03 03:56:21;;;;;;;;;;;;;;;12.19;54.13;101194.78;5060961;28;20518;-74
2022/05/03 03:58:47;;;;;;;;;;;;;;;12.22;53.79;101202.53;5062269;28;19927;-74
2022/05/03 04:01:13;;;;;;;;;;;;;;;12.19;54.13;101202.59;5058076;28;20352;-74
2022/05/03 04:03:39;;;;;;;;;;;;;;;12.01;54.79;101197.78;5060916;28;19997;-74
2022/05/03 04:06:04;;;;;;;;;;;;;;;12.24;54.86;101194.72;5057936;28;19932;-74
2022/05/03 04:08:30;;;;;;;;;;;;;;;12.26;54.81;101205.94;5057432;28;19929;-74
2022/05/03 04:10:55;;;;;;;;;;;;;;;12.28;54.20;101196.34;5063021;28;19981;-74
2022/05/03 04:13:21;;;;;;;;;;;;;;;12.38;53.17;101201.34;5057647;28;19921;-74
2022/05/03 04:15:47;;;;;;;;;;;;;;;11.89;54.77;101205.84;5060630;28;20325;-74
2022/05/03 04:18:12;;;;;;;;;;;;;;;11.86;55.00;101209.34;5057405;28;20373;-74
2022/05/03 04:20:37;;;;;;;;;;;;;;;11.90;54.94;101215.34;5057454;28;19982;-74
2022/05/03 04:23:03;;;;;;;;;;;;;;;11.85;54.75;101217.19;5064399;28;19917;-74
2022/05/03 04:25:28;;;;;;;;;;;;;;;12.08;54.49;101208.03;5062641;28;19920;-74
2022/05/03 04:27:54;;;;;;;;;;;;;;;12.13;54.33;101217.53;5064198;28;20328;-74
2022/05/03 04:30:19;;;;;;;;;;;;;;;12.01;54.29;101216.84;5062767;28;19932;-74
2022/05/03 04:32:44;;;;;;;;;;;;;;;12.16;54.57;101213.09;5064619;28;19928;-74
2022/05/03 04:35:10;;;;;;;;;;;;;;;12.15;53.86;101221.81;5065636;28;19917;-78
2022/05/03 04:37:35;;;;;;;;;;;;;;;11.94;54.29;101228.31;5070709;28;19939;-79
2022/05/03 04:40:00;;;;;;;;;;;;;;;12.04;53.92;101221.16;5068934;28;19931;-79
2022/05/03 04:42:26;;;;;;;;;;;;;;;12.06;53.72;101222.84;5066258;28;19939;-79
2022/05/03 04:44:51;;;;;;;;;;;;;;;12.13;53.43;101228.78;5082223;28;19956;-78
2022/05/03 04:47:17;;;;;;;;;;;;;;;12.01;53.65;101227.28;5065975;28;20454;-79
2022/05/03 04:49:42;;;;;;;;;;;;;;;12.10;53.41;101219.28;5065813;28;19920;-79
2022/05/03 04:52:08;;;;;;;;;;;;;;;11.87;54.14;101225.81;5061160;28;19924;-79
2022/05/03 04:54:34;;;;;;;;;;;;;;;11.61;54.94;101226.31;5066771;28;19924;-79
2022/05/03 04:57:04;;;;;;;;;;;;;;;11.84;54.34;101233.69;5067189;28;20393;-79
2022/05/03 04:59:30;;;;;;;;;;;;;;;11.87;54.09;101228.44;5062792;28;19921;-79
2022/05/03 05:01:55;;;;;;;;;;;;;;;12.00;53.74;101238.59;5065353;28;19919;-79
2022/05/03 05:04:20;;;;;;;;;;;;;;;11.96;54.28;101244.75;5069094;28;20445;-79
2022/05/03 05:06:46;;;;;;;;;;;;;;;12.04;53.76;101245.44;5064092;28;19924;-74
2022/05/03 05:09:11;;;;;;;;;;;;;;;11.95;54.55;101252.56;5059106;28;19924;-74
2022/05/03 05:11:36;;;;;;;;;;;;;;;11.60;55.34;101258.41;5067107;28;19929;-74
2022/05/03 05:14:02;;;;;;;;;;;;;;;11.98;54.26;101255.09;5070676;28;19956;-74
2022/05/03 05:16:27;;;;;;;;;;;;;;;11.68;55.28;101256.53;5077484;28;19924;-74
2022/05/03 05:18:52;;;;;;;;;;;;;;;11.96;55.25;101260.38;5065862;28;19928;-76
2022/05/03 05:21:18;;;;;;;;;;;;;;;12.00;54.04;101254.22;5067957;28;19928;-78
2022/05/03 05:23:43;;;;;;;;;;;;;;;11.99;54.34;101265.50;5063776;28;20503;-78
2022/05/03 05:26:08;;;;;;;;;;;;;;;11.96;54.60;101267.31;5056435;28;19925;-78
2022/05/03 05:28:34;;;;;;;;;;;;;;;11.81;54.86;101270.19;5059800;28;19921;-78
2022/05/03 05:30:59;;;;;;;;;;;;;;;11.93;54.73;101272.56;5059609;28;20397;-78
2022/05/03 05:33:24;;;;;;;;;;;;;;;11.85;55.52;101279.66;5065395;28;19920;-77
2022/05/03 05:35:50;;;;;;;;;;;;;;;11.79;55.58;101282.38;5061488;28;19936;-78
2022/05/03 05:38:17;;;;;;;;;;;;;;;11.63;55.43;101279.19;5057782;28;20061;-78
2022/05/03 05:40:43;;;;;;;;;;;;;;;11.46;56.89;101278.63;5061568;28;19920;-78
2022/05/03 05:43:08;;;;;;;;;;;;;;;11.66;55.11;101280.88;5055934;28;20362;-79
2022/05/03 05:45:34;;;;;;;;;;;;;;;11.66;54.68;101278.25;5063592;28;19925;-74
2022/05/03 05:47:59;;;;;;;;;;;;;;;11.88;54.40;101280.47;5057186;28;19925;-79
2022/05/03 05:50:24;;;;;;;;;;;;;;;11.98;53.50;101282.00;5060838;28;19946;-79
2022/05/03 05:55:35;;;;;;;;;;;;;;;11.70;55.00;101283.41;5064159;28;20008;-74
2022/05/03 05:58:00;;;;;;;;;;;;;;;11.75;54.22;101293.72;5058876;28;19948;-82
2022/05/03 06:00:25;;;;;;;;;;;;;;;11.83;54.03;101287.50;5061414;28;19952;-74
2022/05/03 06:02:51;;;;;;;;;;;;;;;11.83;54.45;101290.09;5062536;28;19941;-74
2022/05/03 06:05:16;;;;;;;;;;;;;;;12.00;53.91;101284.59;5064286;28;19931;-75
2022/05/03 06:07:41;;;;;;;;;;;;;;;11.78;54.97;101294.53;5061534;28;19925;-74
2022/05/03 06:10:07;;;;;;;;;;;;;;;11.80;54.92;101287.53;5058056;28;19948;-74
2022/05/03 06:12:33;;;;;;;;;;;;;;;11.87;55.33;101283.97;5056792;28;19926;-74
2022/05/03 06:14:58;;;;;;;;;;;;;;;11.97;55.08;101287.25;5062227;28;19927;-74
2022/05/03 06:17:23;;;;;;;;;;;;;;;12.09;55.10;101289.63;5056463;28;19932;-75
2022/05/03 06:19:49;;;;;;;;;;;;;;;11.96;54.41;101283.78;5060635;28;20300;-78
2022/05/03 06:22:14;;;;;;;;;;;;;;;11.92;54.77;101289.06;5062127;28;19931;-78
2022/05/03 06:24:40;;;;;;;;;;;;;;;12.03;54.79;101292.34;5062505;28;20039;-78
2022/05/03 06:27:05;;;;;;;;;;;;;;;12.13;54.30;101299.09;5062068;28;19924;-78
2022/05/03 06:29:34;;;;;;;;;;;;;;;12.06;54.51;101302.72;5063414;28;19994;-82
2022/05/03 06:31:59;;;;;;;;;;;;;;;11.98;55.11;101299.38;5060886;28;19967;-81
2022/05/03 06:34:25;;;;;;;;;;;;;;;12.00;55.80;101295.00;5062022;28;20354;-82
2022/05/03 06:36:50;;;;;;;;;;;;;;;12.02;55.43;101296.69;5063247;28;19970;-82
2022/05/03 06:39:15;;;;;;;;;;;;;;;12.16;54.17;101298.16;5067881;28;19924;-82
2022/05/03 06:41:41;;;;;;;;;;;;;;;12.21;54.28;101289.41;5058663;28;20837;-82
2022/05/03 06:44:06;;;;;;;;;;;;;;;12.10;54.13;101289.59;5060908;28;19924;-79
2022/05/03 06:46:31;;;;;;;;;;;;;;;12.06;56.30;101292.31;5063484;28;19921;-82
2022/05/03 06:48:57;;;;;;;;;;;;;;;12.19;55.46;101293.75;5059494;28;19936;-80
2022/05/03 06:51:22;;;;;;;;;;;;;;;12.06;56.69;101292.31;5060671;28;20487;-79
2022/05/03 06:53:48;;;;;;;;;;;;;;;12.17;54.60;101286.88;5066050;28;19935;-79
2022/05/03 06:56:14;;;;;;;;;;;;;;;12.08;56.55;101295.72;5060226;28;19978;-79
2022/05/03 06:58:40;;;;;;;;;;;;;;;12.24;55.61;101297.16;5060375;28;19928;-74
2022/05/03 07:01:09;;;;;;;;;;;;;;;12.20;54.37;101302.44;5056000;28;20507;-74
2022/05/03 07:03:38;;;;;;;;;;;;;;;12.29;54.17;101299.66;5062171;28;19924;-79
2022/05/03 07:06:03;;;;;;;;;;;;;;;12.24;54.75;101302.38;5060254;28;19928;-79
2022/05/03 07:08:29;;;;;;;;;;;;;;;12.31;54.37;101306.56;5065981;28;19928;-79
2022/05/03 07:10:54;;;;;;;;;;;;;;;12.37;53.54;101300.38;5061595;28;19928;-79
2022/05/03 07:13:23;;;;;;;;;;;;;;;12.46;52.91;101311.47;5062844;28;20409;-79
2022/05/03 07:15:49;;;;;;;;;;;;;;;12.50;52.60;101300.09;5057728;28;19962;-79
2022/05/03 07:23:53;;;;;;;;;;;;;;;12.46;52.54;101313.22;5040928;28;19924;-75
2022/05/03 07:26:18;;;;;;;;;;;;;;;12.53;52.41;101307.91;5059656;28;20574;-75
2022/05/03 07:28:44;;;;;;;;;;;;;;;12.49;52.80;101319.22;5061518;28;19924;-75
2022/05/03 07:31:11;;;;;;;;;;;;;;;12.46;52.93;101321.88;5059147;28;26144;-75
2022/05/03 07:33:37;;;;;;;;;;;;;;;12.47;52.41;101321.00;5059916;28;19920;-74
2022/05/03 07:36:03;;;;;;;;;;;;;;;12.46;52.21;101316.69;5064571;28;19931;-82
2022/05/03 07:38:29;;;;;;;;;;;;;;;12.56;52.51;101320.88;5062232;28;20015;-82
2022/05/03 07:40:56;;;;;;;;;;;;;;;12.44;53.39;101323.69;5060261;28;20019;-82
2022/05/03 07:43:21;;;;;;;;;;;;;;;12.53;52.69;101328.75;5057404;28;20003;-82
2022/05/03 07:45:46;;;;;;;;;;;;;;;12.62;52.01;101318.13;5057606;28;20442;-82
2022/05/03 07:48:12;;;;;;;;;;;;;;;12.56;51.70;101326.06;5059651;28;19924;-78
2022/05/03 07:50:37;;;;;;;;;;;;;;;12.49;52.69;101329.66;5058945;28;20421;-78
2022/05/03 07:53:03;;;;;;;;;;;;;;;12.59;52.17;101320.81;5049005;28;19916;-78
2022/05/03 07:55:28;;;;;;;;;;;;;;;12.59;52.70;101335.56;5061793;28;19923;-74
2022/05/03 07:57:53;;;;;;;;;;;;;;;12.56;53.15;101328.69;5059139;28;20027;-75
2022/05/03 08:00:18;;;;;;;;;;;;;;;12.56;53.30;101314.78;5056642;28;19935;-75
2022/05/03 08:02:44;;;;;;;;;;;;;;;12.63;52.83;101313.78;5039326;28;19924;-75
2022/05/03 08:05:09;;;;;;;;;;;;;;;12.61;53.44;101319.00;5041841;28;19951;-83
2022/05/03 08:07:35;;;;;;;;;;;;;;;12.73;52.64;101320.50;5058219;28;19928;-82
2022/05/03 08:10:00;;;;;;;;;;;;;;;12.77;52.23;101319.56;5063019;28;19934;-75
2022/05/03 08:12:26;;;;;;;;;;;;;;;12.84;51.63;101323.72;5059973;28;20540;-75
2022/05/03 08:14:53;;;;;;;;;;;;;;;12.79;52.15;101325.59;5057154;28;20039;-74
2022/05/03 08:17:18;;;;;;;;;;;;;;;12.69;53.27;101331.03;5054767;28;19976;-74
2022/05/03 08:19:44;;;;;;;;;;;;;;;12.75;52.27;101333.53;5066570;28;20017;-75
2022/05/03 08:22:09;;;;;;;;;;;;;;;12.65;51.97;101338.91;5065195;28;19960;-74
2022/05/03 08:24:34;;;;;;;;;;;;;;;12.72;52.76;101337.03;5063344;28;19998;-74
2022/05/03 08:27:01;;;;;;;;;;;;;;;12.76;51.38;101336.06;5066327;28;20328;-75
2022/05/03 08:29:29;;;;;;;;;;;;;;;12.82;51.94;101335.94;5066838;28;19931;-74
2022/05/03 08:31:54;;;;;;;;;;;;;;;12.87;53.02;101335.88;5066238;28;19920;-74
2022/05/03 08:34:20;;;;;;;;;;;;;;;12.94;53.09;101338.28;5046941;28;19927;-74
2022/05/03 08:42:01;;;;;;;;;;;;;;;12.94;52.74;101337.44;5075838;28;19928;-75
2022/05/03 08:42:16;;;;;;;;;;;;;;;13.10;51.93;101342.31;5058914;28;19943;-78
2022/05/03 08:44:41;;;;;;;;;;;;;;;13.09;52.93;101337.09;5064361;28;19939;-78
2022/05/03 08:47:06;;;;;;;;;;;;;;;13.08;52.22;101338.84;5061775;28;20447;-78
2022/05/03 08:49:36;;;;;;;;;;;;;;;13.13;52.21;101338.75;5062967;28;20384;-78
2022/05/03 08:52:02;;;;;;;;;;;;;;;13.15;52.33;101337.84;5061462;28;19925;-78
2022/05/03 08:54:28;;;;;;;;;;;;;;;13.20;52.08;101337.72;5066672;28;19935;-78
2022/05/03 08:56:54;;;;;;;;;;;;;;;13.19;50.82;101342.06;5056774;28;20394;-78
2022/05/03 08:59:20;;;;;;;;;;;;;;;13.22;50.85;101338.56;5067267;28;19936;-78
2022/05/03 09:01:45;;;;;;;;;;;;;;;13.23;50.69;101340.25;5063404;28;19917;-78
2022/05/03 09:04:11;;;;;;;;;;;;;;;13.26;50.50;101341.94;5059723;28;20653;-78
2022/05/03 09:06:40;;;;;;;;;;;;;;;13.27;50.24;101341.91;5066300;28;19925;-78
2022/05/03 09:09:09;;;;;;;;;;;;;;;13.27;50.53;101347.13;5062271;28;20025;-78
2022/05/03 09:11:41;;;;;;;;;;;;;;;13.33;49.65;101339.16;5059857;28;19927;-78
2022/05/03 09:14:10;;;;;;;;;;;;;;;13.34;49.68;101342.63;5056622;28;19924;-78
2022/05/03 09:16:46;;;;;;;;;;;;;;;13.41;49.82;101342.44;5064839;28;19924;-78
2022/05/03 09:19:21;;;;;;;;;;;;;;;13.37;49.27;101339.94;5067879;28;20439;-78
2022/05/03 09:24:49;;;;;;;;;;;;;;;13.38;49.40;101328.59;5054358;28;19927;-78
2022/05/03 09:27:18;;;;;;;;;;;;;;;13.42;49.21;101325.91;5074886;28;20598;-78
2022/05/03 09:30:13;;;;;;;;;;;;;;;13.56;49.27;101329.03;5062413;28;19962;-78
2022/05/03 09:32:38;;;;;;;;;;;;;;;13.65;49.52;101327.94;5053588;28;19952;-78
2022/05/03 09:35:04;;;;;;;;;;;;;;;13.62;49.67;101331.50;5058793;28;19921;-78
2022/05/03 09:37:40;;;;;;;;;;;;;;;13.61;48.48;101334.16;5064047;28;19913;-78
2022/05/03 09:40:05;;;;;;;;;;;;;;;13.55;48.58;101327.31;5062163;28;19952;-78
2022/05/03 09:42:31;;;;;;;;;;;;;;;13.66;48.64;101332.28;5061166;28;19964;-78
2022/05/03 09:45:00;;;;;;;;;;;;;;;13.66;48.50;101327.91;5066003;28;19924;-78
2022/05/03 09:47:29;;;;;;;;;;;;;;;13.67;48.35;101313.16;5054023;28;19928;-78
2022/05/03 09:49:55;;;;;;;;;;;;;;;13.75;48.29;101324.25;5056795;28;19931;-78
2022/05/03 09:52:39;;;;;;;;;;;;;;;13.78;48.89;101321.56;5064231;28;19928;-74
2022/05/03 09:55:06;;;;;;;;;;;;;;;13.69;49.59;101327.88;5058735;28;19971;-78
2022/05/03 09:57:32;;;;;;;;;;;;;;;13.82;47.88;101322.34;5055916;28;19943;-82
2022/05/03 09:59:58;;;;;;;;;;;;;;;13.86;47.59;101318.75;5062696;28;19925;-82
2022/05/03 10:02:25;;;;;;;;;;;;;;;13.85;47.67;101306.59;5057181;28;19936;-79
2022/05/03 10:04:51;;;;;;;;;;;;;;;13.89;48.04;101308.22;5063500;28;19943;-75
2022/05/03 10:07:16;;;;;;;;;;;;;;;13.98;47.69;101308.84;5059431;28;20015;-74
2022/05/03 10:09:43;;;;;;;;;;;;;;;14.04;46.81;101315.66;5063686;28;20025;-74
2022/05/03 10:12:09;;;;;;;;;;;;;;;13.98;47.49;101308.84;5059895;28;20030;-75
2022/05/03 10:14:35;;;;;;;;;;;;;;;14.09;47.18;101311.16;5063828;28;20377;-74
2022/05/03 10:22:36;;;;;;;;;;;;;;;14.12;46.51;101301.47;5061564;28;19958;-75
2022/05/03 10:25:03;;;;;;;;;;;;;;;14.15;47.38;101300.53;5060606;28;19950;-74
2022/05/03 10:27:29;;;;;;;;;;;;;;;14.21;46.37;101297.75;5061740;28;19928;-74
2022/05/03 10:30:14;;;;;;;;;;;;;;;14.22;46.00;101300.34;5057308;28;20361;-74
2022/05/03 10:32:39;;;;;;;;;;;;;;;14.20;46.24;101299.53;5058903;28;20448;-75
2022/05/03 10:35:24;;;;;;;;;;;;;;;14.25;47.26;101297.66;5061654;28;19926;-74
2022/05/03 10:37:53;;;;;;;;;;;;;;;14.27;46.16;101295.84;5054202;28;20399;-78
2022/05/03 10:40:28;;;;;;;;;;;;;;;14.27;45.51;101289.75;5060330;28;19924;-78
2022/05/03 10:43:04;;;;;;;;;;;;;;;14.33;44.57;101294.81;5061000;28;20007;-78
2022/05/03 10:45:30;;;;;;;;;;;;;;;14.32;44.52;101285.28;5062953;28;20004;-78
2022/05/03 10:47:55;;;;;;;;;;;;;;;14.35;43.80;101289.56;5060610;28;20019;-78
2022/05/03 10:50:22;;;;;;;;;;;;;;;14.35;44.50;101293.03;5062631;28;19991;-78
2022/05/03 10:52:54;;;;;;;;;;;;;;;14.41;45.69;101285.03;5063113;28;20401;-78
2022/05/03 10:55:19;;;;;;;;;;;;;;;14.35;44.25;101279.97;5059934;28;19967;-78
2022/05/03 10:58:03;;;;;;;;;;;;;;;14.31;44.95;101291.38;5059337;28;19967;-78
2022/05/03 11:00:55;;;;;;;;;;;;;;;14.42;43.79;101284.09;5066049;28;19924;-78
2022/05/03 11:03:21;;;;;;;;;;;;;;;14.49;43.47;101279.56;5059471;28;19933;-78
2022/05/03 11:06:05;;;;;;;;;;;;;;;14.47;43.27;101266.53;5065275;28;19982;-78
2022/05/03 11:08:30;;;;;;;;;;;;;;;14.50;42.53;101276.03;5062236;28;19935;-78
2022/05/03 11:10:55;;;;;;;;;;;;;;;14.52;43.00;101269.00;5064331;28;19928;-78
2022/05/03 11:13:40;;;;;;;;;;;;;;;14.65;42.95;101265.97;5058892;28;19974;-74
2022/05/03 11:16:22;;;;;;;;;;;;;;;14.56;42.43;101263.63;5061069;28;19925;-75
2022/05/03 11:18:48;;;;;;;;;;;;;;;14.62;41.39;101260.84;5062208;28;19936;-79
2022/05/03 11:21:13;;;;;;;;;;;;;;;14.62;41.24;101260.00;5062548;28;19916;-80
2022/05/03 11:23:52;;;;;;;;;;;;;;;14.61;42.13;101253.91;5058255;28;20078;-80
2022/05/03 11:26:19;;;;;;;;;;;;;;;14.62;42.11;101252.16;5062668;28;20012;-79
2022/05/03 11:28:45;;;;;;;;;;;;;;;14.68;41.77;101252.81;5077654;28;20269;-79
2022/05/03 11:31:11;;;;;;;;;;;;;;;14.81;42.05;101256.81;5067151;28;20501;-80
2022/05/03 11:33:49;;;;;;;;;;;;;;;14.82;42.16;101247.22;5068341;28;19925;-79
2022/05/03 11:36:15;;;;;;;;;;;;;;;14.84;41.84;101248.00;5068897;28;19977;-80
2022/05/03 11:38:40;;;;;;;;;;;;;;;14.82;42.39;101244.59;5066018;28;19920;-80
2022/05/03 11:41:07;;;;;;;;;;;;;;;14.80;42.39;101246.38;5064712;28;20381;-79
2022/05/03 11:43:33;;;;;;;;;;;;;;;14.82;41.08;101247.22;5060026;28;20381;-79
2022/05/03 11:45:59;;;;;;;;;;;;;;;14.93;40.00;101242.50;5069475;28;19981;-79
2022/05/03 11:48:24;;;;;;;;;;;;;;;14.92;40.19;101235.53;5074838;28;19924;-79
2022/05/03 11:56:23;;;;;;;;;;;;;;;14.98;39.28;101237.97;5067052;28;19932;-79
2022/05/03 11:58:49;;;;;;;;;;;;;;;14.98;39.85;101229.28;5065550;28;19923;-79
2022/05/03 12:01:15;;;;;;;;;;;;;;;14.99;39.81;101229.22;5071792;28;19920;-79
2022/05/03 12:03:47;;;;;;;;;;;;;;;15.07;40.68;101231.56;5064960;28;20357;-79
2022/05/03 12:06:16;;;;;;;;;;;;;;;15.11;39.44;101230.59;5068533;28;19955;-79
2022/05/03 12:08:41;;;;;;;;;;;;;;;15.17;39.43;101225.16;5066184;28;19959;-79
2022/05/03 12:11:24;;;;;;;;;;;;;;;15.09;40.00;101221.94;5061139;28;20356;-79
2022/05/03 12:13:49;;;;;;;;;;;;;;;15.13;39.57;101224.38;5064268;28;19917;-79
2022/05/03 12:16:19;;;;;;;;;;;;;;;15.03;40.12;101223.00;5059486;28;19924;-79
2022/05/03 12:18:48;;;;;;;;;;;;;;;15.03;39.96;101220.38;5046432;28;19968;-79
2022/05/03 12:21:15;;;;;;;;;;;;;;;15.06;39.19;101219.41;5042741;28;19964;-75
2022/05/03 12:23:51;;;;;;;;;;;;;;;15.02;39.64;101223.03;5040421;28;19920;-75
2022/05/03 12:26:17;;;;;;;;;;;;;;;15.19;40.11;101218.97;5044224;28;19924;-75
2022/05/03 12:28:46;;;;;;;;;;;;;;;15.20;39.77;101217.19;5040592;28;19936;-74
2022/05/03 12:31:14;;;;;;;;;;;;;;;15.16;39.23;101212.97;5035848;28;19928;-75
2022/05/03 12:33:41;;;;;;;;;;;;;;;15.20;39.75;101212.81;5040850;28;20048;-74
2022/05/03 12:36:08;;;;;;;;;;;;;;;15.28;39.94;101209.94;5051205;28;19925;-75
2022/05/03 12:38:33;;;;;;;;;;;;;;;15.26;39.73;101211.75;5043224;28;19925;-75
2022/05/03 12:40:59;;;;;;;;;;;;;;;15.23;40.26;101215.34;5057798;28;19924;-82
2022/05/03 12:43:28;;;;;;;;;;;;;;;15.22;38.94;101212.75;5042732;28;20305;-82
2022/05/03 12:45:56;;;;;;;;;;;;;;;15.15;39.49;101206.03;5046462;28;19956;-82
2022/05/03 12:48:21;;;;;;;;;;;;;;;15.20;39.00;101211.97;5046156;28;19931;-78
2022/05/03 12:50:47;;;;;;;;;;;;;;;15.26;39.04;101203.91;5039245;28;19921;-78
2022/05/03 12:53:12;;;;;;;;;;;;;;;15.23;39.24;101202.25;5042417;28;19925;-78
2022/05/03 12:55:38;;;;;;;;;;;;;;;15.27;39.47;101201.22;5043870;28;20008;-78
2022/05/03 12:58:21;;;;;;;;;;;;;;;15.33;37.72;101187.94;5038842;28;19971;-78
2022/05/03 13:00:47;;;;;;;;;;;;;;;15.21;40.07;101192.75;5028021;28;20388;-75
2022/05/03 13:03:12;;;;;;;;;;;;;;;15.31;39.84;101188.91;5041437;28;19996;-75
2022/05/03 13:05:38;;;;;;;;;;;;;;;15.32;37.88;101186.25;5046577;28;19931;-75
2022/05/03 13:08:04;;;;;;;;;;;;;;;15.40;39.24;101183.34;5046606;28;20036;-74
2022/05/03 13:10:29;;;;;;;;;;;;;;;15.33;38.55;101182.69;5044846;28;19916;-75
2022/05/03 13:12:54;;;;;;;;;;;;;;;15.34;39.29;101184.44;5044729;28;19968;-75
2022/05/03 13:15:20;;;;;;;;;;;;;;;15.51;39.24;101175.97;5045649;28;19936;-74
2022/05/03 13:17:45;;;;;;;;;;;;;;;15.39;37.83;101179.88;5048435;28;19932;-78